sensor_id;sensor_type;location;lat;lon;timestamp;P1;durP1;ratioP1;P2;durP2;ratioP2
71207;SDS011;58938;49.868;8.646;2023-12-22T00:01:51;3.58;;;1.33;;
71207;SDS011;58938;49.868;8.646;2023-12-22T00:04:17;3.55;;;1.90;;
71207;SDS011;58938;49.868;8.646;2023-12-22T00:06:43;2.83;;;1.38;;
71207;SDS011;58938;49.868;8.646;2023-12-22T00:09:09;4.77;;;1.20;;
71207;SDS011;58938;49.868;8.646;2023-12-22T00:11:35;3.40;;;2.05;;
71207;SDS011;58938;49.868;8.646;2023-12-22T00:14:01;3.00;;;1.08;;
71207;SDS011;58938;49.868;8.646;2023-12-22T00:16:27;2.70;;;1.37;;
71207;SDS011;58938;49.868;8.646;2023-12-22T00:18:53;2.95;;;1.20;;
71207;SDS011;58938;49.868;8.646;2023-12-22T00:21:21;3.08;;;1.38;;
71207;SDS011;58938;49.868;8.646;2023-12-22T00:23:46;2.78;;;1.48;;
71207;SDS011;58938;49.868;8.646;2023-12-22T00:26:12;3.50;;;1.43;;
71207;SDS011;58938;49.868;8.646;2023-12-22T00:28:40;2.47;;;1.20;;
71207;SDS011;58938;49.868;8.646;2023-12-22T00:31:06;2.72;;;1.48;;
71207;SDS011;58938;49.868;8.646;2023-12-22T00:33:33;3.05;;;1.80;;
71207;SDS011;58938;49.868;8.646;2023-12-22T00:35:59;3.88;;;1.77;;
71207;SDS011;58938;49.868;8.646;2023-12-22T00:38:25;2.97;;;1.60;;
71207;SDS011;58938;49.868;8.646;2023-12-22T00:40:51;2.70;;;1.42;;
71207;SDS011;58938;49.868;8.646;2023-12-22T00:43:17;3.97;;;1.52;;
71207;SDS011;58938;49.868;8.646;2023-12-22T00:45:43;3.13;;;1.57;;
71207;SDS011;58938;49.868;8.646;2023-12-22T00:48:09;3.30;;;1.50;;
71207;SDS011;58938;49.868;8.646;2023-12-22T00:50:35;3.70;;;1.60;;
71207;SDS011;58938;49.868;8.646;2023-12-22T00:53:02;3.00;;;1.77;;
71207;SDS011;58938;49.868;8.646;2023-12-22T00:55:28;3.47;;;1.23;;
71207;SDS011;58938;49.868;8.646;2023-12-22T00:57:53;3.15;;;1.38;;
71207;SDS011;58938;49.868;8.646;2023-12-22T01:00:19;2.78;;;1.38;;
71207;SDS011;58938;49.868;8.646;2023-12-22T01:02:45;3.40;;;2.30;;
71207;SDS011;58938;49.868;8.646;2023-12-22T01:05:11;5.17;;;1.20;;
71207;SDS011;58938;49.868;8.646;2023-12-22T01:07:37;3.20;;;1.67;;
71207;SDS011;58938;49.868;8.646;2023-12-22T01:10:03;6.53;;;2.35;;
71207;SDS011;58938;49.868;8.646;2023-12-22T01:12:30;3.60;;;1.80;;
71207;SDS011;58938;49.868;8.646;2023-12-22T01:14:56;4.33;;;1.27;;
71207;SDS011;58938;49.868;8.646;2023-12-22T01:17:22;3.38;;;1.33;;
71207;SDS011;58938;49.868;8.646;2023-12-22T01:19:49;3.90;;;1.90;;
71207;SDS011;58938;49.868;8.646;2023-12-22T01:22:16;6.05;;;1.65;;
71207;SDS011;58938;49.868;8.646;2023-12-22T01:24:42;3.42;;;1.65;;
71207;SDS011;58938;49.868;8.646;2023-12-22T01:27:08;3.30;;;1.50;;
71207;SDS011;58938;49.868;8.646;2023-12-22T01:29:34;4.32;;;1.88;;
71207;SDS011;58938;49.868;8.646;2023-12-22T01:32:00;3.60;;;1.90;;
71207;SDS011;58938;49.868;8.646;2023-12-22T01:34:26;3.88;;;1.73;;
71207;SDS011;58938;49.868;8.646;2023-12-22T01:36:52;3.20;;;1.10;;
71207;SDS011;58938;49.868;8.646;2023-12-22T01:39:18;4.40;;;1.17;;
71207;SDS011;58938;49.868;8.646;2023-12-22T01:41:44;3.30;;;1.80;;
71207;SDS011;58938;49.868;8.646;2023-12-22T01:44:10;4.55;;;2.13;;
71207;SDS011;58938;49.868;8.646;2023-12-22T01:46:36;3.80;;;1.67;;
71207;SDS011;58938;49.868;8.646;2023-12-22T01:49:02;4.50;;;1.63;;
71207;SDS011;58938;49.868;8.646;2023-12-22T01:51:29;4.13;;;1.52;;
71207;SDS011;58938;49.868;8.646;2023-12-22T01:53:56;3.42;;;1.88;;
71207;SDS011;58938;49.868;8.646;2023-12-22T01:56:23;3.50;;;1.90;;
71207;SDS011;58938;49.868;8.646;2023-12-22T01:58:50;3.22;;;1.80;;
71207;SDS011;58938;49.868;8.646;2023-12-22T02:01:16;4.40;;;1.83;;
71207;SDS011;58938;49.868;8.646;2023-12-22T02:03:42;3.65;;;1.30;;
71207;SDS011;58938;49.868;8.646;2023-12-22T02:06:08;3.47;;;1.70;;
71207;SDS011;58938;49.868;8.646;2023-12-22T02:08:35;3.90;;;1.40;;
71207;SDS011;58938;49.868;8.646;2023-12-22T02:11:01;4.85;;;1.50;;
71207;SDS011;58938;49.868;8.646;2023-12-22T02:13:27;3.28;;;1.60;;
71207;SDS011;58938;49.868;8.646;2023-12-22T02:15:56;3.53;;;1.48;;
71207;SDS011;58938;49.868;8.646;2023-12-22T02:18:26;5.63;;;2.10;;
71207;SDS011;58938;49.868;8.646;2023-12-22T02:20:54;4.00;;;1.80;;
71207;SDS011;58938;49.868;8.646;2023-12-22T02:23:20;4.13;;;1.30;;
71207;SDS011;58938;49.868;8.646;2023-12-22T02:25:46;4.10;;;2.00;;
71207;SDS011;58938;49.868;8.646;2023-12-22T02:28:14;4.82;;;2.20;;
71207;SDS011;58938;49.868;8.646;2023-12-22T02:30:43;4.65;;;1.48;;
71207;SDS011;58938;49.868;8.646;2023-12-22T02:33:11;4.40;;;1.40;;
71207;SDS011;58938;49.868;8.646;2023-12-22T02:35:38;3.17;;;1.50;;
71207;SDS011;58938;49.868;8.646;2023-12-22T02:38:06;4.28;;;1.50;;
71207;SDS011;58938;49.868;8.646;2023-12-22T02:40:33;4.57;;;1.63;;
71207;SDS011;58938;49.868;8.646;2023-12-22T02:43:01;3.90;;;1.92;;
71207;SDS011;58938;49.868;8.646;2023-12-22T02:45:27;3.37;;;1.90;;
71207;SDS011;58938;49.868;8.646;2023-12-22T02:47:55;3.20;;;1.33;;
71207;SDS011;58938;49.868;8.646;2023-12-22T02:50:21;3.20;;;1.88;;
71207;SDS011;58938;49.868;8.646;2023-12-22T02:52:47;4.07;;;1.52;;
71207;SDS011;58938;49.868;8.646;2023-12-22T02:55:13;3.53;;;1.53;;
71207;SDS011;58938;49.868;8.646;2023-12-22T02:57:39;4.38;;;1.75;;
71207;SDS011;58938;49.868;8.646;2023-12-22T03:00:05;3.58;;;2.30;;
71207;SDS011;58938;49.868;8.646;2023-12-22T03:02:32;6.45;;;1.85;;
71207;SDS011;58938;49.868;8.646;2023-12-22T03:04:58;4.63;;;1.97;;
71207;SDS011;58938;49.868;8.646;2023-12-22T03:07:23;3.55;;;1.58;;
71207;SDS011;58938;49.868;8.646;2023-12-22T03:09:49;4.70;;;1.65;;
71207;SDS011;58938;49.868;8.646;2023-12-22T03:12:15;3.13;;;1.40;;
71207;SDS011;58938;49.868;8.646;2023-12-22T03:14:41;3.55;;;1.80;;
71207;SDS011;58938;49.868;8.646;2023-12-22T03:17:07;3.10;;;1.40;;
71207;SDS011;58938;49.868;8.646;2023-12-22T03:19:34;3.40;;;1.80;;
71207;SDS011;58938;49.868;8.646;2023-12-22T03:22:00;2.90;;;1.37;;
71207;SDS011;58938;49.868;8.646;2023-12-22T03:24:26;3.30;;;1.95;;
71207;SDS011;58938;49.868;8.646;2023-12-22T03:26:53;3.35;;;1.40;;
71207;SDS011;58938;49.868;8.646;2023-12-22T03:29:19;3.33;;;1.52;;
71207;SDS011;58938;49.868;8.646;2023-12-22T03:31:45;7.87;;;1.40;;
71207;SDS011;58938;49.868;8.646;2023-12-22T03:34:11;3.25;;;1.55;;
71207;SDS011;58938;49.868;8.646;2023-12-22T03:36:37;3.35;;;1.77;;
71207;SDS011;58938;49.868;8.646;2023-12-22T03:39:03;4.13;;;1.42;;
71207;SDS011;58938;49.868;8.646;2023-12-22T03:41:30;3.17;;;1.60;;
71207;SDS011;58938;49.868;8.646;2023-12-22T03:43:56;3.83;;;1.70;;
71207;SDS011;58938;49.868;8.646;2023-12-22T03:46:22;5.97;;;1.95;;
71207;SDS011;58938;49.868;8.646;2023-12-22T03:48:48;4.13;;;1.67;;
71207;SDS011;58938;49.868;8.646;2023-12-22T03:51:14;3.65;;;1.55;;
71207;SDS011;58938;49.868;8.646;2023-12-22T03:53:40;5.85;;;1.60;;
71207;SDS011;58938;49.868;8.646;2023-12-22T03:56:07;6.93;;;2.25;;
71207;SDS011;58938;49.868;8.646;2023-12-22T03:58:33;5.57;;;1.65;;
71207;SDS011;58938;49.868;8.646;2023-12-22T04:00:59;4.32;;;2.38;;
71207;SDS011;58938;49.868;8.646;2023-12-22T04:03:25;5.50;;;1.83;;
71207;SDS011;58938;49.868;8.646;2023-12-22T04:05:51;5.43;;;2.00;;
71207;SDS011;58938;49.868;8.646;2023-12-22T04:08:17;5.28;;;1.95;;
71207;SDS011;58938;49.868;8.646;2023-12-22T04:10:45;5.18;;;2.20;;
71207;SDS011;58938;49.868;8.646;2023-12-22T04:13:11;5.73;;;2.07;;
71207;SDS011;58938;49.868;8.646;2023-12-22T04:15:37;4.05;;;1.60;;
71207;SDS011;58938;49.868;8.646;2023-12-22T04:18:03;6.30;;;2.17;;
71207;SDS011;58938;49.868;8.646;2023-12-22T04:20:29;6.60;;;2.40;;
71207;SDS011;58938;49.868;8.646;2023-12-22T04:22:55;4.20;;;1.60;;
71207;SDS011;58938;49.868;8.646;2023-12-22T04:25:21;4.20;;;1.85;;
71207;SDS011;58938;49.868;8.646;2023-12-22T04:27:48;6.07;;;2.50;;
71207;SDS011;58938;49.868;8.646;2023-12-22T04:30:14;7.07;;;2.10;;
71207;SDS011;58938;49.868;8.646;2023-12-22T04:32:40;3.85;;;1.70;;
71207;SDS011;58938;49.868;8.646;2023-12-22T04:35:06;3.43;;;1.77;;
71207;SDS011;58938;49.868;8.646;2023-12-22T04:37:33;7.15;;;1.88;;
71207;SDS011;58938;49.868;8.646;2023-12-22T04:39:59;3.95;;;1.50;;
71207;SDS011;58938;49.868;8.646;2023-12-22T04:42:24;4.57;;;1.75;;
71207;SDS011;58938;49.868;8.646;2023-12-22T04:44:51;5.40;;;1.67;;
71207;SDS011;58938;49.868;8.646;2023-12-22T04:47:17;5.68;;;1.88;;
71207;SDS011;58938;49.868;8.646;2023-12-22T04:49:43;3.42;;;2.38;;
71207;SDS011;58938;49.868;8.646;2023-12-22T04:52:10;4.68;;;1.60;;
71207;SDS011;58938;49.868;8.646;2023-12-22T04:54:36;4.30;;;1.80;;
71207;SDS011;58938;49.868;8.646;2023-12-22T04:57:02;3.33;;;1.67;;
71207;SDS011;58938;49.868;8.646;2023-12-22T04:59:28;4.20;;;2.20;;
71207;SDS011;58938;49.868;8.646;2023-12-22T05:01:54;4.75;;;1.85;;
71207;SDS011;58938;49.868;8.646;2023-12-22T05:04:20;3.63;;;1.93;;
71207;SDS011;58938;49.868;8.646;2023-12-22T05:06:47;5.78;;;1.58;;
71207;SDS011;58938;49.868;8.646;2023-12-22T05:09:13;4.72;;;1.73;;
71207;SDS011;58938;49.868;8.646;2023-12-22T05:11:39;4.38;;;1.58;;
71207;SDS011;58938;49.868;8.646;2023-12-22T05:14:05;3.30;;;1.63;;
71207;SDS011;58938;49.868;8.646;2023-12-22T05:16:31;3.77;;;1.50;;
71207;SDS011;58938;49.868;8.646;2023-12-22T05:18:57;4.70;;;1.65;;
71207;SDS011;58938;49.868;8.646;2023-12-22T05:21:23;8.88;;;1.92;;
71207;SDS011;58938;49.868;8.646;2023-12-22T05:23:49;3.38;;;1.92;;
71207;SDS011;58938;49.868;8.646;2023-12-22T05:26:21;3.93;;;1.37;;
71207;SDS011;58938;49.868;8.646;2023-12-22T05:28:47;5.20;;;2.00;;
71207;SDS011;58938;49.868;8.646;2023-12-22T05:31:16;4.80;;;2.25;;
71207;SDS011;58938;49.868;8.646;2023-12-22T05:33:44;3.40;;;1.73;;
71207;SDS011;58938;49.868;8.646;2023-12-22T05:36:10;7.93;;;2.57;;
71207;SDS011;58938;49.868;8.646;2023-12-22T05:38:38;5.40;;;1.92;;
71207;SDS011;58938;49.868;8.646;2023-12-22T05:41:05;7.00;;;2.00;;
71207;SDS011;58938;49.868;8.646;2023-12-22T05:43:31;6.65;;;1.63;;
71207;SDS011;58938;49.868;8.646;2023-12-22T05:45:58;4.13;;;1.92;;
71207;SDS011;58938;49.868;8.646;2023-12-22T05:48:24;4.67;;;1.70;;
71207;SDS011;58938;49.868;8.646;2023-12-22T05:50:50;6.18;;;1.77;;
71207;SDS011;58938;49.868;8.646;2023-12-22T05:53:16;7.95;;;1.52;;
71207;SDS011;58938;49.868;8.646;2023-12-22T05:55:42;4.30;;;1.63;;
71207;SDS011;58938;49.868;8.646;2023-12-22T05:58:08;8.27;;;1.27;;
71207;SDS011;58938;49.868;8.646;2023-12-22T06:00:34;6.57;;;2.17;;
71207;SDS011;58938;49.868;8.646;2023-12-22T06:03:00;3.80;;;1.65;;
71207;SDS011;58938;49.868;8.646;2023-12-22T06:05:30;4.80;;;1.65;;
71207;SDS011;58938;49.868;8.646;2023-12-22T06:07:56;3.30;;;1.50;;
71207;SDS011;58938;49.868;8.646;2023-12-22T06:10:21;3.90;;;1.65;;
71207;SDS011;58938;49.868;8.646;2023-12-22T06:12:47;7.35;;;2.17;;
71207;SDS011;58938;49.868;8.646;2023-12-22T06:15:13;7.50;;;1.90;;
71207;SDS011;58938;49.868;8.646;2023-12-22T06:17:39;4.30;;;1.97;;
71207;SDS011;58938;49.868;8.646;2023-12-22T06:20:05;3.97;;;1.70;;
71207;SDS011;58938;49.868;8.646;2023-12-22T06:22:32;6.38;;;1.63;;
71207;SDS011;58938;49.868;8.646;2023-12-22T06:24:58;5.23;;;1.80;;
71207;SDS011;58938;49.868;8.646;2023-12-22T06:27:24;6.78;;;1.83;;
71207;SDS011;58938;49.868;8.646;2023-12-22T06:29:50;4.82;;;2.17;;
71207;SDS011;58938;49.868;8.646;2023-12-22T06:32:16;3.78;;;1.65;;
71207;SDS011;58938;49.868;8.646;2023-12-22T06:34:42;4.00;;;2.17;;
71207;SDS011;58938;49.868;8.646;2023-12-22T06:37:08;4.73;;;1.93;;
71207;SDS011;58938;49.868;8.646;2023-12-22T06:39:35;4.43;;;1.40;;
71207;SDS011;58938;49.868;8.646;2023-12-22T06:42:01;6.05;;;2.10;;
71207;SDS011;58938;49.868;8.646;2023-12-22T06:44:28;5.10;;;2.05;;
71207;SDS011;58938;49.868;8.646;2023-12-22T06:46:56;7.00;;;1.83;;
71207;SDS011;58938;49.868;8.646;2023-12-22T06:49:22;5.65;;;1.88;;
71207;SDS011;58938;49.868;8.646;2023-12-22T06:51:48;4.40;;;1.90;;
71207;SDS011;58938;49.868;8.646;2023-12-22T06:54:14;7.47;;;2.20;;
71207;SDS011;58938;49.868;8.646;2023-12-22T06:56:40;5.90;;;2.20;;
71207;SDS011;58938;49.868;8.646;2023-12-22T06:59:06;6.88;;;2.25;;
71207;SDS011;58938;49.868;8.646;2023-12-22T07:01:35;4.75;;;1.80;;
71207;SDS011;58938;49.868;8.646;2023-12-22T07:04:02;4.20;;;1.92;;
71207;SDS011;58938;49.868;8.646;2023-12-22T07:06:29;5.27;;;1.80;;
71207;SDS011;58938;49.868;8.646;2023-12-22T07:08:56;10.45;;;2.20;;
71207;SDS011;58938;49.868;8.646;2023-12-22T07:11:22;7.70;;;2.78;;
71207;SDS011;58938;49.868;8.646;2023-12-22T07:13:48;6.22;;;1.63;;
71207;SDS011;58938;49.868;8.646;2023-12-22T07:16:14;8.57;;;2.53;;
71207;SDS011;58938;49.868;8.646;2023-12-22T07:18:40;6.53;;;2.40;;
71207;SDS011;58938;49.868;8.646;2023-12-22T07:21:07;8.57;;;2.60;;
71207;SDS011;58938;49.868;8.646;2023-12-22T07:23:33;8.10;;;3.05;;
71207;SDS011;58938;49.868;8.646;2023-12-22T07:25:59;5.30;;;2.10;;
71207;SDS011;58938;49.868;8.646;2023-12-22T07:28:25;5.75;;;1.83;;
71207;SDS011;58938;49.868;8.646;2023-12-22T07:30:51;4.28;;;2.20;;
71207;SDS011;58938;49.868;8.646;2023-12-22T07:33:18;7.78;;;2.50;;
71207;SDS011;58938;49.868;8.646;2023-12-22T07:35:44;7.30;;;2.47;;
71207;SDS011;58938;49.868;8.646;2023-12-22T07:38:10;6.40;;;1.93;;
71207;SDS011;58938;49.868;8.646;2023-12-22T07:40:36;9.45;;;2.42;;
71207;SDS011;58938;49.868;8.646;2023-12-22T07:43:02;6.32;;;2.45;;
71207;SDS011;58938;49.868;8.646;2023-12-22T07:45:28;9.88;;;2.45;;
71207;SDS011;58938;49.868;8.646;2023-12-22T07:47:54;6.73;;;2.50;;
71207;SDS011;58938;49.868;8.646;2023-12-22T07:50:20;5.72;;;2.50;;
71207;SDS011;58938;49.868;8.646;2023-12-22T07:52:46;7.25;;;2.78;;
71207;SDS011;58938;49.868;8.646;2023-12-22T07:55:12;11.13;;;3.33;;
71207;SDS011;58938;49.868;8.646;2023-12-22T07:57:38;7.97;;;2.30;;
71207;SDS011;58938;49.868;8.646;2023-12-22T08:00:04;5.70;;;1.77;;
71207;SDS011;58938;49.868;8.646;2023-12-22T08:02:31;8.45;;;1.90;;
71207;SDS011;58938;49.868;8.646;2023-12-22T08:04:57;10.00;;;3.13;;
71207;SDS011;58938;49.868;8.646;2023-12-22T08:07:23;7.70;;;1.73;;
71207;SDS011;58938;49.868;8.646;2023-12-22T08:09:49;5.70;;;1.60;;
71207;SDS011;58938;49.868;8.646;2023-12-22T08:12:15;9.88;;;2.78;;
71207;SDS011;58938;49.868;8.646;2023-12-22T08:14:41;6.00;;;2.45;;
71207;SDS011;58938;49.868;8.646;2023-12-22T08:17:07;4.23;;;2.30;;
71207;SDS011;58938;49.868;8.646;2023-12-22T08:19:33;7.40;;;2.20;;
71207;SDS011;58938;49.868;8.646;2023-12-22T08:21:59;8.65;;;2.72;;
71207;SDS011;58938;49.868;8.646;2023-12-22T08:24:25;9.65;;;2.05;;
71207;SDS011;58938;49.868;8.646;2023-12-22T08:26:51;8.52;;;3.78;;
71207;SDS011;58938;49.868;8.646;2023-12-22T08:29:17;8.63;;;2.30;;
71207;SDS011;58938;49.868;8.646;2023-12-22T08:31:44;7.30;;;2.80;;
71207;SDS011;58938;49.868;8.646;2023-12-22T08:34:10;5.60;;;2.03;;
71207;SDS011;58938;49.868;8.646;2023-12-22T08:36:36;6.13;;;1.83;;
71207;SDS011;58938;49.868;8.646;2023-12-22T08:39:02;5.77;;;1.87;;
71207;SDS011;58938;49.868;8.646;2023-12-22T08:41:30;8.43;;;2.22;;
71207;SDS011;58938;49.868;8.646;2023-12-22T08:44:01;7.63;;;2.47;;
71207;SDS011;58938;49.868;8.646;2023-12-22T08:46:27;6.15;;;2.28;;
71207;SDS011;58938;49.868;8.646;2023-12-22T08:48:53;6.63;;;2.63;;
71207;SDS011;58938;49.868;8.646;2023-12-22T08:51:18;7.07;;;2.00;;
71207;SDS011;58938;49.868;8.646;2023-12-22T08:53:44;5.40;;;2.10;;
71207;SDS011;58938;49.868;8.646;2023-12-22T08:56:10;7.70;;;2.30;;
71207;SDS011;58938;49.868;8.646;2023-12-22T08:58:36;4.83;;;2.03;;
71207;SDS011;58938;49.868;8.646;2023-12-22T09:01:02;5.03;;;1.73;;
71207;SDS011;58938;49.868;8.646;2023-12-22T09:03:31;7.38;;;2.33;;
71207;SDS011;58938;49.868;8.646;2023-12-22T09:05:57;4.72;;;2.05;;
71207;SDS011;58938;49.868;8.646;2023-12-22T09:08:23;6.60;;;1.63;;
71207;SDS011;58938;49.868;8.646;2023-12-22T09:10:49;10.20;;;1.88;;
71207;SDS011;58938;49.868;8.646;2023-12-22T09:13:15;8.85;;;2.72;;
71207;SDS011;58938;49.868;8.646;2023-12-22T09:15:41;11.77;;;2.65;;
71207;SDS011;58938;49.868;8.646;2023-12-22T09:18:11;8.70;;;2.40;;
71207;SDS011;58938;49.868;8.646;2023-12-22T09:20:38;5.85;;;3.03;;
71207;SDS011;58938;49.868;8.646;2023-12-22T09:23:05;8.23;;;2.42;;
71207;SDS011;58938;49.868;8.646;2023-12-22T09:25:33;7.15;;;3.15;;
71207;SDS011;58938;49.868;8.646;2023-12-22T09:27:59;13.82;;;4.30;;
71207;SDS011;58938;49.868;8.646;2023-12-22T09:30:24;12.40;;;3.73;;
71207;SDS011;58938;49.868;8.646;2023-12-22T09:32:50;8.55;;;3.67;;
71207;SDS011;58938;49.868;8.646;2023-12-22T09:35:17;8.48;;;4.13;;
71207;SDS011;58938;49.868;8.646;2023-12-22T09:37:43;8.33;;;3.40;;
71207;SDS011;58938;49.868;8.646;2023-12-22T09:40:09;11.10;;;2.80;;
71207;SDS011;58938;49.868;8.646;2023-12-22T09:42:37;9.52;;;3.17;;
71207;SDS011;58938;49.868;8.646;2023-12-22T09:45:07;9.20;;;2.47;;
71207;SDS011;58938;49.868;8.646;2023-12-22T09:47:34;6.95;;;2.78;;
71207;SDS011;58938;49.868;8.646;2023-12-22T09:50:01;5.50;;;2.93;;
71207;SDS011;58938;49.868;8.646;2023-12-22T09:52:27;6.35;;;2.67;;
71207;SDS011;58938;49.868;8.646;2023-12-22T09:54:54;9.05;;;2.58;;
71207;SDS011;58938;49.868;8.646;2023-12-22T09:57:20;11.80;;;2.05;;
71207;SDS011;58938;49.868;8.646;2023-12-22T09:59:48;7.45;;;2.42;;
71207;SDS011;58938;49.868;8.646;2023-12-22T10:02:14;4.90;;;1.87;;
71207;SDS011;58938;49.868;8.646;2023-12-22T10:04:40;10.50;;;2.45;;
71207;SDS011;58938;49.868;8.646;2023-12-22T10:07:06;9.13;;;2.80;;
71207;SDS011;58938;49.868;8.646;2023-12-22T10:09:33;11.98;;;2.92;;
71207;SDS011;58938;49.868;8.646;2023-12-22T10:11:59;12.70;;;2.47;;
71207;SDS011;58938;49.868;8.646;2023-12-22T10:14:27;8.73;;;2.50;;
71207;SDS011;58938;49.868;8.646;2023-12-22T10:16:52;14.55;;;2.97;;
71207;SDS011;58938;49.868;8.646;2023-12-22T10:19:19;11.30;;;3.58;;
71207;SDS011;58938;49.868;8.646;2023-12-22T10:21:45;11.70;;;3.20;;
71207;SDS011;58938;49.868;8.646;2023-12-22T10:26:56;11.20;;;3.10;;
71207;SDS011;58938;49.868;8.646;2023-12-22T10:29:22;13.43;;;2.97;;
71207;SDS011;58938;49.868;8.646;2023-12-22T10:31:48;18.90;;;3.30;;
71207;SDS011;58938;49.868;8.646;2023-12-22T10:34:15;11.02;;;3.20;;
71207;SDS011;58938;49.868;8.646;2023-12-22T10:36:41;16.65;;;4.15;;
71207;SDS011;58938;49.868;8.646;2023-12-22T10:39:07;12.25;;;3.70;;
71207;SDS011;58938;49.868;8.646;2023-12-22T10:41:33;13.77;;;3.35;;
71207;SDS011;58938;49.868;8.646;2023-12-22T10:43:59;11.93;;;3.73;;
71207;SDS011;58938;49.868;8.646;2023-12-22T10:46:25;14.90;;;3.83;;
71207;SDS011;58938;49.868;8.646;2023-12-22T10:48:55;16.23;;;3.08;;
71207;SDS011;58938;49.868;8.646;2023-12-22T10:51:22;12.85;;;3.65;;
71207;SDS011;58938;49.868;8.646;2023-12-22T10:53:48;13.50;;;3.67;;
71207;SDS011;58938;49.868;8.646;2023-12-22T10:56:14;17.23;;;3.20;;
71207;SDS011;58938;49.868;8.646;2023-12-22T10:58:40;16.38;;;3.25;;
71207;SDS011;58938;49.868;8.646;2023-12-22T11:01:07;12.13;;;4.07;;
71207;SDS011;58938;49.868;8.646;2023-12-22T11:03:34;17.05;;;3.60;;
71207;SDS011;58938;49.868;8.646;2023-12-22T11:06:04;18.17;;;3.67;;
71207;SDS011;58938;49.868;8.646;2023-12-22T11:08:30;21.10;;;3.35;;
71207;SDS011;58938;49.868;8.646;2023-12-22T11:10:57;10.98;;;3.08;;
71207;SDS011;58938;49.868;8.646;2023-12-22T11:13:24;9.07;;;3.33;;
71207;SDS011;58938;49.868;8.646;2023-12-22T11:15:50;16.10;;;3.40;;
71207;SDS011;58938;49.868;8.646;2023-12-22T11:18:18;15.57;;;2.93;;
71207;SDS011;58938;49.868;8.646;2023-12-22T11:20:44;8.85;;;2.63;;
71207;SDS011;58938;49.868;8.646;2023-12-22T11:23:11;15.07;;;3.15;;
71207;SDS011;58938;49.868;8.646;2023-12-22T11:25:38;15.60;;;2.85;;
71207;SDS011;58938;49.868;8.646;2023-12-22T11:28:04;11.63;;;3.20;;
71207;SDS011;58938;49.868;8.646;2023-12-22T11:30:31;6.63;;;1.80;;
71207;SDS011;58938;49.868;8.646;2023-12-22T11:32:57;14.77;;;3.30;;
71207;SDS011;58938;49.868;8.646;2023-12-22T11:35:24;14.85;;;3.55;;
71207;SDS011;58938;49.868;8.646;2023-12-22T11:37:50;7.68;;;2.50;;
71207;SDS011;58938;49.868;8.646;2023-12-22T11:40:16;18.20;;;3.93;;
71207;SDS011;58938;49.868;8.646;2023-12-22T11:42:43;9.77;;;3.47;;
71207;SDS011;58938;49.868;8.646;2023-12-22T11:45:11;10.25;;;3.40;;
71207;SDS011;58938;49.868;8.646;2023-12-22T11:47:41;13.63;;;3.03;;
71207;SDS011;58938;49.868;8.646;2023-12-22T11:50:11;11.30;;;2.80;;
71207;SDS011;58938;49.868;8.646;2023-12-22T11:52:37;11.27;;;2.60;;
71207;SDS011;58938;49.868;8.646;2023-12-22T11:55:04;12.23;;;2.78;;
71207;SDS011;58938;49.868;8.646;2023-12-22T11:57:31;6.35;;;2.72;;
71207;SDS011;58938;49.868;8.646;2023-12-22T12:00:00;6.57;;;2.00;;
71207;SDS011;58938;49.868;8.646;2023-12-22T12:02:26;12.35;;;3.38;;
71207;SDS011;58938;49.868;8.646;2023-12-22T12:04:52;8.63;;;2.23;;
71207;SDS011;58938;49.868;8.646;2023-12-22T12:10:09;9.35;;;2.78;;
71207;SDS011;58938;49.868;8.646;2023-12-22T12:12:35;8.82;;;2.25;;
71207;SDS011;58938;49.868;8.646;2023-12-22T12:15:06;8.68;;;2.95;;
71207;SDS011;58938;49.868;8.646;2023-12-22T12:17:32;7.37;;;2.20;;
71207;SDS011;58938;49.868;8.646;2023-12-22T12:19:58;9.40;;;1.90;;
71207;SDS011;58938;49.868;8.646;2023-12-22T12:22:25;10.07;;;2.47;;
71207;SDS011;58938;49.868;8.646;2023-12-22T12:24:51;6.57;;;1.90;;
71207;SDS011;58938;49.868;8.646;2023-12-22T12:27:17;9.15;;;2.05;;
71207;SDS011;58938;49.868;8.646;2023-12-22T12:29:44;7.60;;;2.03;;
71207;SDS011;58938;49.868;8.646;2023-12-22T12:32:10;9.45;;;2.30;;
71207;SDS011;58938;49.868;8.646;2023-12-22T12:34:40;11.45;;;3.17;;
71207;SDS011;58938;49.868;8.646;2023-12-22T12:37:06;10.13;;;2.65;;
71207;SDS011;58938;49.868;8.646;2023-12-22T12:39:32;6.07;;;3.17;;
71207;SDS011;58938;49.868;8.646;2023-12-22T12:41:59;13.47;;;2.73;;
71207;SDS011;58938;49.868;8.646;2023-12-22T12:44:29;8.00;;;2.33;;
71207;SDS011;58938;49.868;8.646;2023-12-22T12:46:57;12.48;;;3.40;;
71207;SDS011;58938;49.868;8.646;2023-12-22T12:49:23;10.43;;;2.60;;
71207;SDS011;58938;49.868;8.646;2023-12-22T12:51:52;9.32;;;2.67;;
71207;SDS011;58938;49.868;8.646;2023-12-22T12:54:18;9.63;;;2.63;;
71207;SDS011;58938;49.868;8.646;2023-12-22T12:56:45;11.40;;;2.70;;
71207;SDS011;58938;49.868;8.646;2023-12-22T12:59:15;13.57;;;2.70;;
71207;SDS011;58938;49.868;8.646;2023-12-22T13:01:41;7.70;;;3.22;;
71207;SDS011;58938;49.868;8.646;2023-12-22T13:04:08;13.10;;;3.45;;
71207;SDS011;58938;49.868;8.646;2023-12-22T13:06:34;8.23;;;2.93;;
71207;SDS011;58938;49.868;8.646;2023-12-22T13:09:01;9.75;;;3.20;;
71207;SDS011;58938;49.868;8.646;2023-12-22T13:11:28;8.85;;;3.00;;
71207;SDS011;58938;49.868;8.646;2023-12-22T13:13:56;8.27;;;3.20;;
71207;SDS011;58938;49.868;8.646;2023-12-22T13:16:22;8.95;;;2.58;;
71207;SDS011;58938;49.868;8.646;2023-12-22T13:18:54;8.53;;;2.57;;
71207;SDS011;58938;49.868;8.646;2023-12-22T13:21:20;8.50;;;1.90;;
71207;SDS011;58938;49.868;8.646;2023-12-22T13:23:46;7.35;;;2.80;;
71207;SDS011;58938;49.868;8.646;2023-12-22T13:26:19;6.95;;;2.40;;
71207;SDS011;58938;49.868;8.646;2023-12-22T13:28:45;4.13;;;1.63;;
71207;SDS011;58938;49.868;8.646;2023-12-22T13:31:12;4.33;;;1.27;;
71207;SDS011;58938;49.868;8.646;2023-12-22T13:33:43;4.45;;;1.63;;
71207;SDS011;58938;49.868;8.646;2023-12-22T13:36:09;5.22;;;2.15;;
71207;SDS011;58938;49.868;8.646;2023-12-22T13:38:35;5.00;;;1.50;;
71207;SDS011;58938;49.868;8.646;2023-12-22T13:41:04;3.03;;;1.48;;
71207;SDS011;58938;49.868;8.646;2023-12-22T13:43:33;3.27;;;1.47;;
71207;SDS011;58938;49.868;8.646;2023-12-22T13:45:59;3.38;;;1.70;;
71207;SDS011;58938;49.868;8.646;2023-12-22T13:48:25;3.15;;;1.55;;
71207;SDS011;58938;49.868;8.646;2023-12-22T13:50:58;3.10;;;1.50;;
71207;SDS011;58938;49.868;8.646;2023-12-22T13:53:24;3.83;;;1.90;;
71207;SDS011;58938;49.868;8.646;2023-12-22T13:56:09;2.77;;;1.40;;
71207;SDS011;58938;49.868;8.646;2023-12-22T13:58:43;2.88;;;1.65;;
71207;SDS011;58938;49.868;8.646;2023-12-22T14:01:12;3.33;;;1.60;;
71207;SDS011;58938;49.868;8.646;2023-12-22T14:03:39;3.75;;;1.35;;
71207;SDS011;58938;49.868;8.646;2023-12-22T14:06:05;4.55;;;1.67;;
71207;SDS011;58938;49.868;8.646;2023-12-22T14:08:34;3.23;;;1.27;;
71207;SDS011;58938;49.868;8.646;2023-12-22T14:11:00;2.97;;;1.60;;
71207;SDS011;58938;49.868;8.646;2023-12-22T14:13:25;3.30;;;1.48;;
71207;SDS011;58938;49.868;8.646;2023-12-22T14:15:52;3.78;;;2.22;;
71207;SDS011;58938;49.868;8.646;2023-12-22T14:18:18;2.67;;;1.20;;
71207;SDS011;58938;49.868;8.646;2023-12-22T14:20:44;3.83;;;1.55;;
71207;SDS011;58938;49.868;8.646;2023-12-22T14:23:11;3.03;;;1.52;;
71207;SDS011;58938;49.868;8.646;2023-12-22T14:25:41;3.65;;;1.80;;
71207;SDS011;58938;49.868;8.646;2023-12-22T14:28:07;3.08;;;1.50;;
71207;SDS011;58938;49.868;8.646;2023-12-22T14:30:33;3.77;;;1.70;;
71207;SDS011;58938;49.868;8.646;2023-12-22T14:32:59;3.47;;;1.80;;
71207;SDS011;58938;49.868;8.646;2023-12-22T14:35:25;3.50;;;1.70;;
71207;SDS011;58938;49.868;8.646;2023-12-22T14:37:51;3.53;;;2.10;;
71207;SDS011;58938;49.868;8.646;2023-12-22T14:40:17;3.50;;;1.40;;
71207;SDS011;58938;49.868;8.646;2023-12-22T14:42:43;3.40;;;1.30;;
71207;SDS011;58938;49.868;8.646;2023-12-22T14:45:09;3.55;;;1.60;;
71207;SDS011;58938;49.868;8.646;2023-12-22T14:47:35;3.15;;;1.80;;